Monteview, ID

1:51 AM MDT on September 04, 2015 (GMT -0600)
ARLFRD | | Change Station
CLOSE
Current Station
Personal Weather Station
Location: Terreton, ID
Elevation: 4791 ft
Nearby Weather Stations

Elev 4791 ft 43.84 °N, 112.42 °W | Updated 31 minutes ago

Mostly Cloudy
Mostly Cloudy
57 °F
Feels Like 57 °F
N
3
Wind Variable Wind from NNE
Gusts 4.0 mph

Today
High -- | Low -- °F
--% Chance of Precip.
Yesterday
High -- | Low -- °F
Precip. -- in
6:56 AM 8:00 PM
Waning Gibbous, 62% visible
Pressure 29.86 in
Visibility 10.0 miles
Clouds Clear
Dew Point 46 °F
Humidity 65%
Rainfall in
Snow Depth Not available.
UV 0 out of 12
Pollen 8.70 out of 12
Air Quality Not available.
Flu Activity Not available.
SPECI KIDA 040710Z 20014KT 10SM CLR 15/07 A2986 RMK AO2 WSHFT 0650 T01500067
Pressure 29.86 in
Visibility 10.0 miles
Clouds Clear
Dew Point 46 °F
Humidity 65%
Rainfall in
Snow Depth Not available.
UV 0 out of 12
Pollen 8.70 out of 12
Air Quality Not available.
Flu Activity Not available.
SPECI KIDA 040710Z 20014KT 10SM CLR 15/07 A2986 RMK AO2 WSHFT 0650 T01500067

10-Day Weather Forecast

×

Almanac

Astronomy

Sep. 04, 2015 Rise Set
Actual Time
Civil Twilight
Nautical Twilight
Astronomical Twilight
Moon
Length of Visible Light
Length of Day
Tomorrow will be .
, % of the Moon is Illuminated

Today's Extremes

State Highs State Lows

Community

WunderPhotos

Upload Photos

1,852,132 photos uploaded!

WunderBlogs® & News

Nearby

Air Quality

  Air Quality AQ Index Pollutant
Not available.

Snow Depth

Station Depth Elevation

Earthquake Activity

City Distance Mag. Time & Date
Minimum magnitude displayed is 2.5.

Coastal Water Temperatures

Place Temperature

Stations

Nearby Weather Stations

Station Location Temp. Windchill Dew Point Humidity Wind Precip. Elev Updated Type